createdAt,value
2017-08-20T00:00:59.383Z,3.67
2017-08-20T00:03:27.563Z,2.42
2017-08-20T00:05:55.727Z,2.20
2017-08-20T00:08:23.903Z,2.62
2017-08-20T00:10:52.382Z,4.40
2017-08-20T00:13:21.280Z,5.15
2017-08-20T00:15:49.872Z,2.45
2017-08-20T00:18:18.035Z,5.00
2017-08-20T00:20:46.207Z,5.32
2017-08-20T00:23:14.287Z,2.40
2017-08-20T00:25:42.451Z,2.22
2017-08-20T00:28:10.630Z,2.90
2017-08-20T00:30:38.703Z,1.52
2017-08-20T00:33:06.889Z,3.72
2017-08-20T00:35:35.055Z,2.85
2017-08-20T00:38:03.236Z,4.15
2017-08-20T00:40:32.840Z,6.32
2017-08-20T00:43:01.022Z,4.40
2017-08-20T00:45:29.179Z,2.97
2017-08-20T00:47:57.351Z,3.40
2017-08-20T00:50:25.863Z,2.90
2017-08-20T00:52:54.711Z,2.30
2017-08-20T00:55:22.804Z,4.70
2017-08-20T00:57:50.971Z,5.37
2017-08-20T01:00:19.076Z,4.28
2017-08-20T01:02:47.939Z,4.20
2017-08-20T01:05:16.120Z,4.45
2017-08-20T01:07:44.211Z,6.53
2017-08-20T01:10:13.070Z,7.07
2017-08-20T01:12:41.251Z,4.20
2017-08-20T01:15:10.149Z,2.40
2017-08-20T01:17:38.306Z,3.47
2017-08-20T01:20:06.796Z,2.28
2017-08-20T01:22:34.962Z,1.87
2017-08-20T01:25:03.142Z,4.12
2017-08-20T01:27:31.318Z,3.80
2017-08-20T01:29:59.486Z,3.87
2017-08-20T01:32:27.671Z,2.03
2017-08-20T01:34:55.772Z,2.67
2017-08-20T01:37:24.627Z,4.35
2017-08-20T01:39:52.798Z,5.05
2017-08-20T01:42:20.970Z,3.58
2017-08-20T01:44:49.851Z,3.67
2017-08-20T01:47:17.936Z,2.92
2017-08-20T01:49:47.443Z,4.32
2017-08-20T01:52:15.518Z,7.18
2017-08-20T01:54:44.394Z,6.22
2017-08-20T01:57:12.581Z,3.47
2017-08-20T01:59:40.754Z,2.35
2017-08-20T02:02:08.926Z,8.35
2017-08-20T02:04:37.602Z,2.40
2017-08-20T02:07:06.502Z,2.62
2017-08-20T02:09:34.678Z,2.53
2017-08-20T02:12:02.786Z,2.95
2017-08-20T02:14:31.732Z,2.40
2017-08-20T02:17:00.634Z,4.22
2017-08-20T02:19:28.810Z,4.80
2017-08-20T02:21:57.074Z,2.08
2017-08-20T02:24:25.570Z,9.88
2017-08-20T02:26:53.741Z,3.35
2017-08-20T02:29:21.914Z,4.78
2017-08-20T02:31:50.014Z,5.35
2017-08-20T02:34:18.162Z,4.95
2017-08-20T02:36:46.334Z,4.00
2017-08-20T02:39:15.434Z,3.85
2017-08-20T02:41:43.606Z,4.95
2017-08-20T02:44:11.782Z,5.55
2017-08-20T02:46:40.678Z,1.75
2017-08-20T02:49:08.754Z,4.28
2017-08-20T02:51:36.917Z,4.55
2017-08-20T02:54:05.810Z,3.40
2017-08-20T02:56:33.887Z,7.35
2017-08-20T02:59:02.054Z,2.72
2017-08-20T03:01:30.949Z,5.43
2017-08-20T03:03:59.122Z,2.42
2017-08-20T03:06:27.298Z,4.10
2017-08-20T03:08:55.474Z,7.55
2017-08-20T03:11:23.643Z,8.15
2017-08-20T03:13:51.713Z,4.40
2017-08-20T03:16:19.890Z,6.40
2017-08-20T03:18:48.790Z,3.85
2017-08-20T03:21:18.402Z,3.50
2017-08-20T03:23:46.562Z,5.60
2017-08-20T03:26:14.738Z,4.93
2017-08-20T03:28:42.914Z,4.00
2017-08-20T03:31:11.087Z,3.42
2017-08-20T03:33:40.068Z,4.95
2017-08-20T03:36:08.974Z,5.50
2017-08-20T03:38:37.142Z,8.75
2017-08-20T03:41:05.630Z,2.80
2017-08-20T03:43:33.802Z,5.72
2017-08-20T03:46:02.694Z,7.37
2017-08-20T03:48:30.874Z,5.18
2017-08-20T03:50:58.977Z,4.53
2017-08-20T03:53:27.822Z,9.77
2017-08-20T03:55:56.719Z,6.82
2017-08-20T03:58:24.902Z,4.65
2017-08-20T04:00:53.070Z,3.53
2017-08-20T04:03:21.242Z,7.07
2017-08-20T04:05:49.318Z,5.07
2017-08-20T04:08:17.490Z,6.60
2017-08-20T04:10:45.666Z,5.93
2017-08-20T04:13:13.838Z,5.18
2017-08-20T04:15:42.014Z,5.32
2017-08-20T04:18:10.902Z,3.15
2017-08-20T04:20:39.074Z,4.03
2017-08-20T04:23:07.253Z,3.95
2017-08-20T04:25:35.426Z,5.78
2017-08-20T04:28:03.505Z,3.80
2017-08-20T04:30:31.670Z,3.00
2017-08-20T04:32:59.846Z,6.12
2017-08-20T04:35:27.927Z,3.80
2017-08-20T04:37:56.094Z,6.70
2017-08-20T04:40:24.270Z,2.12
2017-08-20T04:42:52.346Z,3.67
2017-08-20T04:45:20.839Z,3.17
2017-08-20T04:47:48.910Z,3.17
2017-08-20T04:50:17.008Z,4.10
2017-08-20T04:52:45.863Z,1.95
2017-08-20T04:55:13.938Z,3.95
2017-08-20T04:57:42.041Z,4.72
2017-08-20T05:00:10.502Z,5.07
2017-08-20T05:02:38.594Z,4.22
2017-08-20T05:05:07.454Z,4.18
2017-08-20T05:07:35.523Z,3.17
2017-08-20T05:10:03.626Z,6.22
2017-08-20T05:12:32.462Z,3.33
2017-08-20T05:15:01.298Z,2.78
2017-08-20T05:17:30.170Z,7.05
2017-08-20T05:19:58.243Z,6.55
2017-08-20T05:22:26.313Z,4.12
2017-08-20T05:24:55.999Z,3.17
2017-08-20T05:27:24.802Z,3.85
2017-08-20T05:29:52.874Z,6.87
2017-08-20T05:32:20.971Z,4.05
2017-08-20T05:34:49.438Z,5.75
2017-08-20T05:37:17.535Z,5.43
2017-08-20T05:39:46.394Z,4.45
2017-08-20T05:42:14.490Z,4.05
2017-08-20T05:44:43.331Z,3.00
2017-08-20T05:47:11.426Z,7.47
2017-08-20T05:49:39.502Z,4.20
2017-08-20T05:52:07.602Z,8.70
2017-08-20T05:54:36.446Z,4.10
2017-08-20T05:57:04.526Z,3.67
2017-08-20T05:59:32.598Z,4.12
2017-08-20T06:02:00.735Z,6.30
2017-08-20T06:04:28.834Z,4.43
2017-08-20T06:06:56.879Z,3.97
2017-08-20T06:09:25.738Z,6.85
2017-08-20T06:11:54.583Z,5.75
2017-08-20T06:14:22.700Z,9.50
2017-08-20T06:16:50.766Z,3.75
2017-08-20T06:19:18.838Z,6.35
2017-08-20T06:21:46.950Z,6.97
2017-08-20T06:24:15.790Z,4.32
2017-08-20T06:26:43.862Z,2.97
2017-08-20T06:29:11.958Z,5.60
2017-08-20T06:31:40.818Z,4.65
2017-08-20T06:34:08.890Z,7.75
2017-08-20T06:36:36.986Z,4.50
2017-08-20T06:39:05.846Z,2.35
2017-08-20T06:41:33.950Z,6.32
2017-08-20T06:44:02.023Z,5.40
2017-08-20T06:46:30.097Z,6.47
2017-08-20T06:48:58.954Z,5.95
2017-08-20T06:51:27.052Z,6.57
2017-08-20T06:53:55.518Z,5.00
2017-08-20T06:56:23.614Z,3.72
2017-08-20T06:58:52.603Z,5.47
2017-08-20T07:01:20.746Z,7.47
2017-08-20T07:03:48.922Z,4.43
2017-08-20T07:06:17.094Z,6.47
2017-08-20T07:08:45.174Z,10.10
2017-08-20T07:11:13.254Z,4.95
2017-08-20T07:13:42.953Z,5.70
2017-08-20T07:16:11.126Z,10.32
2017-08-20T07:18:40.834Z,3.80
2017-08-20T07:21:08.906Z,3.97
2017-08-20T07:23:37.082Z,3.35
2017-08-20T07:26:05.994Z,11.90
2017-08-20T07:28:34.070Z,4.70
2017-08-20T07:31:02.563Z,9.63
2017-08-20T07:33:31.414Z,6.20
2017-08-20T07:36:00.278Z,6.15
2017-08-20T07:38:28.350Z,8.88
2017-08-20T07:40:56.550Z,10.90
2017-08-20T07:43:24.726Z,3.92
2017-08-20T07:45:52.906Z,9.30
2017-08-20T07:48:20.986Z,15.52
2017-08-20T07:50:49.082Z,6.68
2017-08-20T07:53:17.925Z,12.45
2017-08-20T07:55:46.042Z,7.47
2017-08-20T07:58:14.902Z,6.20
2017-08-20T08:00:43.073Z,7.30
2017-08-20T08:03:11.170Z,4.75
2017-08-20T08:05:39.326Z,8.05
2017-08-20T08:08:07.497Z,5.45
2017-08-20T08:10:35.666Z,7.12
2017-08-20T08:13:03.842Z,5.95
2017-08-20T08:15:32.313Z,17.33
2017-08-20T08:18:00.498Z,5.68
2017-08-20T08:20:28.674Z,7.95
2017-08-20T08:22:56.846Z,7.57
2017-08-20T08:25:25.022Z,5.85
2017-08-20T08:27:53.915Z,4.72
2017-08-20T08:30:22.494Z,5.15
2017-08-20T08:32:50.732Z,7.37
2017-08-20T08:35:19.662Z,6.90
2017-08-20T08:37:48.246Z,8.55
2017-08-20T08:40:16.830Z,4.28
2017-08-20T08:42:45.011Z,7.30
2017-08-20T08:45:13.117Z,10.00
2017-08-20T08:47:42.074Z,10.00
2017-08-20T08:50:10.553Z,4.78
2017-08-20T08:52:39.150Z,5.25
2017-08-20T08:55:07.209Z,4.75
2017-08-20T08:57:36.070Z,6.87
2017-08-20T09:00:04.174Z,8.15
2017-08-20T09:02:32.345Z,7.72
2017-08-20T09:05:00.518Z,7.70
2017-08-20T09:07:28.694Z,5.55
2017-08-20T09:09:56.799Z,4.78
2017-08-20T09:12:24.871Z,4.82
2017-08-20T09:14:53.338Z,3.62
2017-08-20T09:17:21.438Z,3.15
2017-08-20T09:19:49.906Z,6.37
2017-08-20T09:22:18.792Z,10.32
2017-08-20T09:24:48.370Z,6.70
2017-08-20T09:27:16.442Z,8.30
2017-08-20T09:29:44.538Z,6.05
2017-08-20T09:32:12.606Z,6.20
2017-08-20T09:34:40.748Z,5.72
2017-08-20T09:37:09.542Z,8.27
2017-08-20T09:39:37.638Z,5.50
2017-08-20T09:42:05.734Z,4.00
2017-08-20T09:44:34.209Z,6.15
2017-08-20T09:47:02.298Z,5.35
2017-08-20T09:49:30.370Z,4.70
2017-08-20T09:51:58.474Z,7.85
2017-08-20T09:54:26.551Z,5.60
2017-08-20T09:56:54.634Z,5.55
2017-08-20T09:59:22.722Z,8.43
2017-08-20T10:01:50.802Z,7.97
2017-08-20T10:04:18.914Z,8.95
2017-08-20T10:06:47.386Z,7.35
2017-08-20T10:09:16.683Z,6.37
2017-08-20T10:11:45.571Z,4.47
2017-08-20T10:14:13.642Z,5.87
2017-08-20T10:16:41.738Z,5.85
2017-08-20T10:19:09.811Z,2.60
2017-08-20T10:21:37.906Z,6.32
2017-08-20T10:24:06.002Z,5.03
2017-08-20T10:26:34.078Z,2.55
2017-08-20T10:29:02.174Z,5.53
2017-08-20T10:31:31.015Z,4.53
2017-08-20T10:33:59.135Z,5.45
2017-08-20T10:36:27.603Z,4.37
2017-08-20T10:38:55.681Z,2.55
2017-08-20T10:41:23.772Z,4.87
2017-08-20T10:43:51.843Z,4.12
2017-08-20T10:46:19.946Z,4.87
2017-08-20T10:48:48.018Z,2.45
2017-08-20T10:51:16.095Z,2.50
2017-08-20T10:53:44.186Z,5.75
2017-08-20T10:56:12.290Z,4.95
2017-08-20T10:58:41.130Z,4.12
2017-08-20T11:01:09.202Z,4.37
2017-08-20T11:03:37.298Z,9.00
2017-08-20T11:06:05.394Z,4.30
2017-08-20T11:08:34.343Z,9.10
2017-08-20T11:11:02.411Z,4.43
2017-08-20T11:13:30.886Z,5.05
2017-08-20T11:15:58.963Z,2.78
2017-08-20T11:18:27.035Z,3.20
2017-08-20T11:20:55.130Z,6.00
2017-08-20T11:23:23.206Z,2.37
2017-08-20T11:25:51.318Z,4.32
2017-08-20T11:28:19.389Z,4.72
2017-08-20T11:30:47.480Z,3.28
2017-08-20T11:33:16.355Z,3.92
2017-08-20T11:35:44.463Z,2.15
2017-08-20T11:38:12.556Z,2.12
2017-08-20T11:40:40.630Z,2.33
2017-08-20T11:43:08.734Z,5.45
2017-08-20T11:45:37.586Z,2.55
2017-08-20T11:48:05.654Z,2.30
2017-08-20T11:50:33.759Z,3.40
2017-08-20T11:53:02.600Z,6.12
2017-08-20T11:55:30.674Z,3.10
2017-08-20T11:57:58.778Z,4.90
2017-08-20T12:00:26.882Z,1.85
2017-08-20T12:02:54.977Z,4.53
2017-08-20T12:05:23.064Z,3.03
2017-08-20T12:07:51.166Z,5.50
2017-08-20T12:10:19.239Z,1.87
2017-08-20T12:12:47.314Z,4.93
2017-08-20T12:15:15.426Z,6.70
2017-08-20T12:17:43.507Z,3.95
2017-08-20T12:20:11.570Z,6.28
2017-08-20T12:22:39.674Z,6.30
2017-08-20T12:25:07.758Z,7.62
2017-08-20T12:27:35.834Z,2.72
2017-08-20T12:30:03.950Z,2.78
2017-08-20T12:32:32.038Z,3.22
2017-08-20T12:35:01.362Z,3.75
2017-08-20T12:37:29.422Z,3.08
2017-08-20T12:39:57.494Z,4.68
2017-08-20T12:42:25.598Z,4.20
2017-08-20T12:44:53.669Z,2.95
2017-08-20T12:47:21.746Z,5.00
2017-08-20T12:49:49.842Z,4.05
2017-08-20T12:52:18.702Z,3.50
2017-08-20T12:54:46.798Z,2.55
2017-08-20T12:57:15.638Z,3.00
2017-08-20T12:59:43.739Z,4.12
2017-08-20T13:02:11.874Z,4.05
2017-08-20T13:04:39.964Z,4.62
2017-08-20T13:07:08.023Z,3.85
2017-08-20T13:09:36.135Z,4.47
2017-08-20T13:12:04.198Z,3.62
2017-08-20T13:14:32.322Z,3.17
2017-08-20T13:17:01.252Z,2.65
2017-08-20T13:19:29.314Z,1.90
2017-08-20T13:21:57.391Z,3.37
2017-08-20T13:24:25.502Z,3.62
2017-08-20T13:26:53.574Z,2.67
2017-08-20T13:29:21.646Z,4.05
2017-08-20T13:31:49.940Z,2.65
2017-08-20T13:34:18.046Z,6.90
2017-08-20T13:36:46.135Z,2.95
2017-08-20T13:39:14.638Z,2.55
2017-08-20T13:41:43.810Z,5.75
2017-08-20T13:44:13.047Z,5.72
2017-08-20T13:46:41.111Z,2.45
2017-08-20T13:49:09.209Z,3.58
2017-08-20T13:51:38.068Z,2.75
2017-08-20T13:54:06.138Z,5.43
2017-08-20T13:56:34.626Z,3.35
2017-08-20T13:59:02.726Z,3.70
2017-08-20T14:01:30.834Z,6.53
2017-08-20T14:03:58.913Z,15.88
2017-08-20T14:06:26.991Z,10.30
2017-08-20T14:08:55.086Z,4.35
2017-08-20T14:11:23.159Z,4.20
2017-08-20T14:13:51.254Z,4.80
2017-08-20T14:16:20.114Z,2.45
2017-08-20T14:18:48.214Z,4.45
2017-08-20T14:21:17.056Z,2.50
2017-08-20T14:23:45.153Z,5.03
2017-08-20T14:26:13.219Z,3.53
2017-08-20T14:28:41.328Z,3.12
2017-08-20T14:31:10.171Z,13.43
2017-08-20T14:33:38.246Z,5.80
2017-08-20T14:36:06.350Z,5.57
2017-08-20T14:38:35.191Z,5.57
2017-08-20T14:41:03.263Z,9.15
2017-08-20T14:43:31.358Z,7.87
2017-08-20T14:45:59.458Z,14.23
2017-08-20T14:48:28.351Z,20.88
2017-08-20T14:50:57.198Z,16.70
2017-08-20T14:53:25.674Z,15.30
2017-08-20T14:55:53.778Z,10.88
2017-08-20T14:58:21.854Z,5.22
2017-08-20T15:00:49.946Z,3.55
2017-08-20T15:03:18.413Z,5.32
2017-08-20T15:05:46.526Z,4.93
2017-08-20T15:08:14.616Z,4.10
2017-08-20T15:10:42.699Z,3.20
2017-08-20T15:13:10.798Z,3.72
2017-08-20T15:15:38.946Z,2.85
2017-08-20T15:18:07.519Z,3.00
2017-08-20T15:20:36.422Z,1.90
2017-08-20T15:23:04.593Z,3.00
2017-08-20T15:25:32.778Z,5.65
2017-08-20T15:28:00.956Z,2.58
2017-08-20T15:30:29.119Z,3.92
2017-08-20T15:32:57.298Z,2.55
2017-08-20T15:35:25.774Z,2.85
2017-08-20T15:37:53.950Z,4.37
2017-08-20T15:40:22.530Z,3.65
2017-08-20T15:42:50.706Z,4.87
2017-08-20T15:45:18.887Z,2.65
2017-08-20T15:47:47.054Z,3.17
2017-08-20T15:50:15.234Z,3.62
2017-08-20T15:52:43.417Z,4.12
2017-08-20T15:55:11.583Z,3.40
2017-08-20T15:57:39.770Z,3.25
2017-08-20T16:00:07.931Z,5.50
2017-08-20T16:02:36.824Z,3.08
2017-08-20T16:05:06.521Z,6.18
2017-08-20T16:07:34.691Z,4.07
2017-08-20T16:10:02.746Z,4.65
2017-08-20T16:12:30.818Z,3.55
2017-08-20T16:15:00.050Z,5.90
2017-08-20T16:17:28.914Z,9.10
2017-08-20T16:19:58.120Z,12.00
2017-08-20T16:22:26.195Z,3.60
2017-08-20T16:24:55.062Z,5.53
2017-08-20T16:27:23.138Z,3.12
2017-08-20T16:29:51.215Z,3.50
2017-08-20T16:32:20.442Z,2.85
2017-08-20T16:34:48.922Z,5.60
2017-08-20T16:37:17.026Z,4.70
2017-08-20T16:39:45.869Z,2.95
2017-08-20T16:42:13.941Z,3.80
2017-08-20T16:44:42.046Z,2.25
2017-08-20T16:47:11.649Z,3.87
2017-08-20T16:49:40.121Z,2.33
2017-08-20T16:52:08.226Z,4.00
2017-08-20T16:54:37.074Z,3.62
2017-08-20T16:57:05.542Z,4.57
2017-08-20T16:59:34.850Z,2.70
2017-08-20T17:02:03.646Z,5.07
2017-08-20T17:04:31.742Z,2.47
2017-08-20T17:06:59.814Z,2.10
2017-08-20T17:09:27.922Z,4.35
2017-08-20T17:11:55.993Z,5.20
2017-08-20T17:14:24.462Z,5.93
2017-08-20T17:16:52.957Z,7.43
2017-08-20T17:19:21.031Z,10.00
2017-08-20T17:21:49.851Z,9.30
2017-08-20T17:24:19.074Z,9.55
2017-08-20T17:26:48.764Z,14.87
2017-08-20T17:29:17.241Z,11.10
2017-08-20T17:31:45.278Z,10.27
2017-08-20T17:34:13.390Z,6.75
2017-08-20T17:36:41.486Z,7.18
2017-08-20T17:39:09.978Z,7.53
2017-08-20T17:41:38.050Z,3.05
2017-08-20T17:44:06.923Z,2.55
2017-08-20T17:46:34.998Z,3.25
2017-08-20T17:49:03.066Z,3.55
2017-08-20T17:51:32.058Z,2.62
2017-08-20T17:54:00.530Z,1.92
2017-08-20T17:56:28.626Z,2.17
2017-08-20T17:58:56.741Z,4.03
2017-08-20T18:01:24.817Z,3.95
2017-08-20T18:03:53.282Z,4.40
2017-08-20T18:06:21.771Z,2.37
2017-08-20T18:08:51.130Z,6.47
2017-08-20T18:11:19.203Z,2.30
2017-08-20T18:13:47.306Z,6.53
2017-08-20T18:16:16.158Z,3.35
2017-08-20T18:18:44.626Z,4.47
2017-08-20T18:21:12.743Z,3.45
2017-08-20T18:23:41.582Z,3.80
2017-08-20T18:26:09.662Z,4.65
2017-08-20T18:28:37.758Z,6.05
2017-08-20T18:31:05.832Z,7.62
2017-08-20T18:33:33.926Z,7.22
2017-08-20T18:36:02.773Z,8.48
2017-08-20T18:38:31.626Z,7.40
2017-08-20T18:40:59.722Z,7.05
2017-08-20T18:43:27.799Z,7.60
2017-08-20T18:45:56.298Z,7.82
2017-08-20T18:48:24.370Z,8.93
2017-08-20T18:50:52.446Z,6.00
2017-08-20T18:53:20.558Z,6.62
2017-08-20T18:55:48.634Z,5.57
2017-08-20T18:58:16.710Z,6.25
2017-08-20T19:00:45.203Z,3.87
2017-08-20T19:03:14.621Z,6.43
2017-08-20T19:05:42.810Z,4.22
2017-08-20T19:08:12.622Z,4.97
2017-08-20T19:10:41.618Z,2.55
2017-08-20T19:13:10.914Z,8.80
2017-08-20T19:15:38.987Z,4.90
2017-08-20T19:18:07.494Z,7.53
2017-08-20T19:20:35.574Z,6.30
2017-08-20T19:23:04.419Z,5.40
2017-08-20T19:25:34.721Z,11.88
2017-08-20T19:28:02.815Z,8.32
2017-08-20T19:30:30.906Z,8.18
2017-08-20T19:32:59.378Z,10.23
2017-08-20T19:35:27.498Z,7.15
2017-08-20T19:37:56.019Z,6.40
2017-08-20T19:40:24.814Z,8.73
2017-08-20T19:42:54.755Z,9.82
2017-08-20T19:45:22.830Z,12.00
2017-08-20T19:47:50.952Z,9.73
2017-08-20T19:50:19.030Z,15.32
2017-08-20T19:52:47.106Z,15.45
2017-08-20T19:55:16.337Z,12.20
2017-08-20T19:57:44.414Z,10.65
2017-08-20T20:00:12.513Z,11.18
2017-08-20T20:02:41.399Z,6.35
2017-08-20T20:05:10.245Z,6.05
2017-08-20T20:07:38.316Z,9.90
2017-08-20T20:10:06.806Z,8.27
2017-08-20T20:12:34.881Z,7.75
2017-08-20T20:15:03.063Z,7.68
2017-08-20T20:17:31.141Z,5.93
2017-08-20T20:19:59.302Z,11.82
2017-08-20T20:22:27.478Z,10.55
2017-08-20T20:24:55.740Z,14.98
2017-08-20T20:27:23.826Z,16.80
2017-08-20T20:29:51.998Z,20.48
2017-08-20T20:32:20.170Z,22.05
2017-08-20T20:34:48.334Z,19.30
2017-08-20T20:37:16.429Z,21.60
2017-08-20T20:39:44.603Z,22.23
2017-08-20T20:42:12.775Z,23.25
2017-08-20T20:44:40.862Z,18.52
2017-08-20T20:47:09.734Z,24.20
2017-08-20T20:49:37.966Z,24.80
2017-08-20T20:52:06.087Z,26.30
2017-08-20T20:54:34.258Z,26.00
2017-08-20T20:57:02.439Z,24.90
2017-08-20T20:59:30.611Z,21.00
2017-08-20T21:01:58.708Z,20.17
2017-08-20T21:04:27.575Z,21.48
2017-08-20T21:06:55.744Z,20.90
2017-08-20T21:09:25.450Z,22.10
2017-08-20T21:11:53.630Z,15.05
2017-08-20T21:14:21.738Z,16.23
2017-08-20T21:16:50.703Z,15.45
2017-08-20T21:19:18.868Z,15.38
2017-08-20T21:21:46.959Z,12.07
2017-08-20T21:24:15.802Z,7.70
2017-08-20T21:26:45.130Z,8.63
2017-08-20T21:29:13.310Z,12.93
2017-08-20T21:31:41.411Z,9.05
2017-08-20T21:34:10.268Z,12.93
2017-08-20T21:36:38.855Z,10.55
2017-08-20T21:39:07.434Z,7.32
2017-08-20T21:41:35.610Z,9.63
2017-08-20T21:44:03.786Z,12.82
2017-08-20T21:46:32.045Z,10.82
2017-08-20T21:49:00.115Z,7.40
2017-08-20T21:51:28.302Z,6.60
2017-08-20T21:53:56.478Z,7.87
2017-08-20T21:56:24.654Z,13.93
2017-08-20T21:58:53.234Z,11.25
2017-08-20T22:01:21.818Z,8.18
2017-08-20T22:03:49.994Z,13.65
2017-08-20T22:06:18.178Z,19.90
2017-08-20T22:08:46.432Z,20.40
2017-08-20T22:11:14.518Z,32.10
2017-08-20T22:13:42.695Z,30.88
2017-08-20T22:16:10.866Z,21.30
2017-08-20T22:18:38.956Z,18.80
2017-08-20T22:21:07.126Z,15.75
2017-08-20T22:23:35.630Z,16.12
2017-08-20T22:26:04.174Z,13.25
2017-08-20T22:28:32.286Z,8.18
2017-08-20T22:31:00.840Z,9.82
2017-08-20T22:33:29.014Z,8.02
2017-08-20T22:35:57.110Z,7.28
2017-08-20T22:38:25.610Z,9.25
2017-08-20T22:40:53.926Z,11.12
2017-08-20T22:43:22.830Z,6.78
2017-08-20T22:45:51.006Z,9.45
2017-08-20T22:48:19.082Z,5.50
2017-08-20T22:50:47.194Z,7.15
2017-08-20T22:53:15.735Z,7.35
2017-08-20T22:55:43.823Z,6.80
2017-08-20T22:58:11.983Z,5.30
2017-08-20T23:00:40.162Z,4.75
2017-08-20T23:03:08.342Z,9.35
2017-08-20T23:05:36.514Z,8.50
2017-08-20T23:08:04.679Z,6.12
2017-08-20T23:10:32.823Z,6.53
2017-08-20T23:13:00.923Z,9.95
2017-08-20T23:15:29.098Z,5.15
2017-08-20T23:17:57.274Z,7.55
2017-08-20T23:20:25.864Z,7.78
2017-08-20T23:22:54.026Z,7.18
2017-08-20T23:25:22.206Z,6.37
2017-08-20T23:27:50.378Z,7.47
2017-08-20T23:30:18.474Z,4.97
2017-08-20T23:32:47.124Z,8.85
2017-08-20T23:35:15.635Z,2.97
2017-08-20T23:37:44.202Z,6.07
2017-08-20T23:40:12.298Z,4.22
2017-08-20T23:42:40.854Z,2.58
2017-08-20T23:45:09.034Z,4.75
2017-08-20T23:47:37.141Z,4.93
2017-08-20T23:50:05.693Z,3.40
2017-08-20T23:52:33.862Z,5.32
2017-08-20T23:55:02.039Z,6.03
2017-08-20T23:57:30.207Z,3.47
2017-08-20T23:59:58.382Z,5.05
